Time;durP1;ratioP1;P1;durP2;ratioP2;P2;SDS_P1;SDS_P2;PMS_P1;PMS_P2;Temp;Humidity;BMP_temperature;BMP_pressure;BME280_temperature;BME280_humidity;BME280_pressure;Samples;Min_cycle;Max_cycle;Signal;HPM_P1;HPM_P2
2022/05/07 00:02:11;;;;;;;;;;;12.40;91.20;;;;;;5042785;28;19909;-70
2022/05/07 00:04:37;;;;;;;;;;;12.40;91.20;;;;;;5043370;28;20204;-71
2022/05/07 00:07:06;;;;;;;;;;;12.40;91.30;;;;;;5043362;28;20234;-71
2022/05/07 00:09:32;;;;;;;;;;;12.30;91.30;;;;;;5043199;28;19909;-70
2022/05/07 00:11:58;;;;;;;;;;;12.30;91.40;;;;;;5042106;28;19909;-70
2022/05/07 00:14:24;;;;;;;;;;;12.20;91.70;;;;;;5043203;28;20200;-70
2022/05/07 00:19:34;;;;;;;;;;;12.10;92.30;;;;;;5043063;28;20131;-71
2022/05/07 00:22:00;;;;;;;;;;;12.10;92.40;;;;;;5057398;28;19913;-70
2022/05/07 00:24:26;;;;;;;;;;;12.00;92.40;;;;;;5042089;28;19909;-70
2022/05/07 00:26:52;;;;;;;;;;;12.00;92.60;;;;;;5027912;28;20086;-70
2022/05/07 00:29:18;;;;;;;;;;;12.10;92.50;;;;;;5022542;28;19909;-70
2022/05/07 00:31:43;;;;;;;;;;;12.00;92.70;;;;;;5021854;28;19944;-70
2022/05/07 00:34:09;;;;;;;;;;;11.80;92.90;;;;;;5022099;28;19909;-70
2022/05/07 00:36:35;;;;;;;;;;;11.80;93.10;;;;;;5022768;28;19956;-72
2022/05/07 00:39:00;;;;;;;;;;;11.80;93.30;;;;;;5022939;28;19909;-70
2022/05/07 00:41:26;;;;;;;;;;;11.80;93.30;;;;;;5022171;28;19909;-70
2022/05/07 00:43:52;;;;;;;;;;;11.70;93.30;;;;;;5021267;28;20007;-71
2022/05/07 00:46:18;;;;;;;;;;;11.70;93.30;;;;;;5022629;28;19949;-68
2022/05/07 00:48:44;;;;;;;;;;;11.80;93.40;;;;;;5021267;28;19917;-67
2022/05/07 00:53:54;;;;;;;;;;;11.60;93.80;;;;;;5022541;28;20229;-70
2022/05/07 00:56:19;;;;;;;;;;;11.60;93.90;;;;;;5022372;28;19997;-69
2022/05/07 00:58:45;;;;;;;;;;;11.50;94.10;;;;;;5034341;28;19912;-68
2022/05/07 01:01:11;;;;;;;;;;;11.40;94.50;;;;;;5040128;28;19913;-68
2022/05/07 01:03:37;;;;;;;;;;;11.30;94.70;;;;;;5042121;28;19909;-68
2022/05/07 01:06:02;;;;;;;;;;;11.30;95.00;;;;;;5040964;28;19979;-68
2022/05/07 01:08:29;;;;;;;;;;;11.10;95.40;;;;;;5041999;28;19917;-68
2022/05/07 01:10:56;;;;;;;;;;;11.10;95.60;;;;;;5041156;28;20032;-68
2022/05/07 01:13:21;;;;;;;;;;;11.20;95.50;;;;;;5041582;28;19909;-68
2022/05/07 01:15:48;;;;;;;;;;;11.20;95.50;;;;;;5041726;28;19916;-68
2022/05/07 01:18:15;;;;;;;;;;;11.10;95.60;;;;;;5041824;28;20275;-68
2022/05/07 01:20:41;;;;;;;;;;;11.10;95.90;;;;;;5040956;28;20066;-68
2022/05/07 01:23:07;;;;;;;;;;;11.10;95.80;;;;;;5041826;28;19955;-68
2022/05/07 01:25:33;;;;;;;;;;;11.10;95.70;;;;;;5040556;28;19948;-68
2022/05/07 01:27:59;;;;;;;;;;;11.00;96.00;;;;;;5041358;28;19913;-68
2022/05/07 01:30:25;;;;;;;;;;;10.90;96.30;;;;;;5041640;28;20133;-70
2022/05/07 01:32:50;;;;;;;;;;;10.80;96.50;;;;;;5040789;28;19980;-70
2022/05/07 01:35:16;;;;;;;;;;;10.70;96.80;;;;;;5041641;28;19909;-69
2022/05/07 01:37:42;;;;;;;;;;;10.70;97.00;;;;;;5041610;28;19951;-70
2022/05/07 01:40:08;;;;;;;;;;;10.70;96.90;;;;;;5041474;28;19920;-70
2022/05/07 01:42:34;;;;;;;;;;;10.80;96.80;;;;;;5039424;28;19944;-69
2022/05/07 01:44:59;;;;;;;;;;;10.90;96.60;;;;;;5046786;28;19963;-70
2022/05/07 01:50:23;;;;;;;;;;;10.90;96.50;;;;;;5035929;28;20272;-69
2022/05/07 01:52:48;;;;;;;;;;;10.90;96.60;;;;;;5047464;28;19912;-69
2022/05/07 01:55:14;;;;;;;;;;;10.80;96.70;;;;;;5047926;28;19909;-69
2022/05/07 01:57:40;;;;;;;;;;;10.80;96.70;;;;;;5047026;28;19913;-69
2022/05/07 02:00:06;;;;;;;;;;;10.80;96.70;;;;;;5047845;28;19915;-70
2022/05/07 02:02:32;;;;;;;;;;;10.80;96.60;;;;;;5046934;28;19951;-69
2022/05/07 02:04:58;;;;;;;;;;;10.80;96.70;;;;;;5047974;28;19909;-69
2022/05/07 02:07:23;;;;;;;;;;;10.80;96.70;;;;;;5047828;28;19916;-70
2022/05/07 02:09:49;;;;;;;;;;;10.80;96.60;;;;;;5048003;28;19932;-68
2022/05/07 02:12:15;;;;;;;;;;;10.80;96.50;;;;;;5046815;28;19909;-69
2022/05/07 02:14:41;;;;;;;;;;;10.70;96.70;;;;;;5047909;28;19932;-69
2022/05/07 02:17:07;;;;;;;;;;;10.70;96.70;;;;;;5047832;28;19913;-69
2022/05/07 02:19:32;;;;;;;;;;;10.70;96.60;;;;;;5047828;28;19909;-69
2022/05/07 02:21:58;;;;;;;;;;;10.70;96.60;;;;;;5046939;28;19913;-68
2022/05/07 02:24:24;;;;;;;;;;;10.70;96.60;;;;;;5047739;28;19916;-66
2022/05/07 02:26:49;;;;;;;;;;;10.70;96.60;;;;;;5047741;28;19948;-67
2022/05/07 02:29:15;;;;;;;;;;;10.70;96.70;;;;;;5047546;28;19909;-67
2022/05/07 02:31:41;;;;;;;;;;;10.70;96.70;;;;;;5046973;28;19983;-67
2022/05/07 02:34:06;;;;;;;;;;;10.70;96.70;;;;;;5047582;28;19916;-67
2022/05/07 02:36:35;;;;;;;;;;;10.70;97.00;;;;;;5033015;28;19909;-65
2022/05/07 02:39:00;;;;;;;;;;;10.60;96.70;;;;;;5026858;28;20112;-64
2022/05/07 02:44:10;;;;;;;;;;;10.60;96.90;;;;;;5027507;28;19975;-65
2022/05/07 02:46:36;;;;;;;;;;;10.60;96.90;;;;;;5027683;28;19913;-67
2022/05/07 02:49:02;;;;;;;;;;;10.60;96.90;;;;;;5037738;28;19916;-67
2022/05/07 02:51:27;;;;;;;;;;;10.50;97.00;;;;;;5046778;28;19940;-67
2022/05/07 02:53:53;;;;;;;;;;;10.50;96.90;;;;;;5047500;28;19959;-66
2022/05/07 02:56:19;;;;;;;;;;;10.50;97.00;;;;;;5044173;28;19914;-67
2022/05/07 02:58:44;;;;;;;;;;;10.50;96.90;;;;;;5043427;28;20124;-67
2022/05/07 03:01:10;;;;;;;;;;;10.50;97.00;;;;;;5043575;28;19942;-67
2022/05/07 03:03:36;;;;;;;;;;;10.50;97.10;;;;;;5038151;28;19943;-68
2022/05/07 03:06:01;;;;;;;;;;;10.50;97.20;;;;;;5044149;28;19948;-67
2022/05/07 03:08:27;;;;;;;;;;;10.40;97.30;;;;;;5044183;28;19980;-68
2022/05/07 03:10:53;;;;;;;;;;;10.40;97.30;;;;;;5043273;28;19924;-67
2022/05/07 03:13:19;;;;;;;;;;;10.30;97.30;;;;;;5043976;28;19909;-67
2022/05/07 03:15:44;;;;;;;;;;;10.30;97.30;;;;;;5044049;28;19951;-67
2022/05/07 03:18:12;;;;;;;;;;;10.20;97.40;;;;;;5043893;28;19975;-67
2022/05/07 03:20:38;;;;;;;;;;;10.20;97.50;;;;;;5041925;28;19972;-67
2022/05/07 03:23:04;;;;;;;;;;;10.20;97.70;;;;;;5042655;28;20129;-67
2022/05/07 03:25:30;;;;;;;;;;;10.10;97.70;;;;;;5044088;28;19955;-67
2022/05/07 03:27:55;;;;;;;;;;;10.10;97.70;;;;;;5043460;28;20232;-66
2022/05/07 03:30:21;;;;;;;;;;;10.00;97.70;;;;;;5043786;28;19909;-68
2022/05/07 03:32:47;;;;;;;;;;;10.00;97.90;;;;;;5043005;28;19909;-68
2022/05/07 03:35:12;;;;;;;;;;;10.00;97.90;;;;;;5043615;28;19909;-68
2022/05/07 03:37:38;;;;;;;;;;;9.90;98.10;;;;;;5043388;28;19913;-66
2022/05/07 03:40:04;;;;;;;;;;;9.90;98.30;;;;;;5043540;28;19909;-66
2022/05/07 03:42:33;;;;;;;;;;;9.90;98.00;;;;;;5042555;28;20011;-66
2022/05/07 03:45:00;;;;;;;;;;;9.90;98.00;;;;;;5043403;28;19916;-66
2022/05/07 03:47:26;;;;;;;;;;;9.90;98.10;;;;;;5043523;28;20228;-66
2022/05/07 03:49:51;;;;;;;;;;;9.90;98.20;;;;;;5058791;28;19956;-68
2022/05/07 03:55:01;;;;;;;;;;;9.90;98.30;;;;;;5043530;28;20234;-67
2022/05/07 03:57:27;;;;;;;;;;;9.90;98.30;;;;;;5042835;28;19913;-65
2022/05/07 03:59:53;;;;;;;;;;;9.80;98.40;;;;;;5037451;28;19981;-66
2022/05/07 04:02:18;;;;;;;;;;;9.70;98.40;;;;;;5022762;28;19913;-65
2022/05/07 04:04:44;;;;;;;;;;;9.70;98.50;;;;;;5023327;28;20178;-67
2022/05/07 04:07:10;;;;;;;;;;;9.80;98.50;;;;;;5023165;28;20128;-66
2022/05/07 04:09:36;;;;;;;;;;;9.70;98.50;;;;;;5022526;28;20005;-65
2022/05/07 04:12:02;;;;;;;;;;;9.70;98.50;;;;;;5022397;28;19933;-66
2022/05/07 04:14:28;;;;;;;;;;;9.70;98.60;;;;;;5023047;28;19909;-66
2022/05/07 04:16:53;;;;;;;;;;;9.70;98.60;;;;;;5023159;28;19932;-65
2022/05/07 04:19:19;;;;;;;;;;;9.70;98.70;;;;;;5023242;28;19910;-67
2022/05/07 04:21:45;;;;;;;;;;;9.70;98.70;;;;;;5022349;28;20101;-68
2022/05/07 04:24:10;;;;;;;;;;;9.70;98.60;;;;;;5023146;28;19940;-68
2022/05/07 04:26:36;;;;;;;;;;;9.70;98.60;;;;;;5023239;28;20061;-68
2022/05/07 04:29:02;;;;;;;;;;;9.70;98.60;;;;;;5035563;28;19909;-66
2022/05/07 04:31:28;;;;;;;;;;;9.70;98.60;;;;;;5042044;28;20100;-65
2022/05/07 04:33:53;;;;;;;;;;;9.70;98.60;;;;;;5042725;28;20144;-65
2022/05/07 04:36:19;;;;;;;;;;;9.70;98.60;;;;;;5041331;28;19909;-66
2022/05/07 04:38:45;;;;;;;;;;;9.70;98.50;;;;;;5042547;28;20279;-66
2022/05/07 04:41:10;;;;;;;;;;;9.70;98.50;;;;;;5041886;28;19971;-65
2022/05/07 04:43:36;;;;;;;;;;;9.70;98.50;;;;;;5042372;28;19909;-66
2022/05/07 04:46:02;;;;;;;;;;;9.70;98.50;;;;;;5034073;28;19940;-65
2022/05/07 04:48:27;;;;;;;;;;;9.70;98.50;;;;;;5022285;28;19917;-67
2022/05/07 04:50:53;;;;;;;;;;;9.70;98.50;;;;;;5033341;28;19999;-69
2022/05/07 04:53:19;;;;;;;;;;;9.70;98.50;;;;;;5041192;28;19949;-67
2022/05/07 04:55:44;;;;;;;;;;;9.80;98.50;;;;;;5042367;28;19909;-67
2022/05/07 04:58:10;;;;;;;;;;;9.80;98.30;;;;;;5041213;28;20173;-66
2022/05/07 05:00:36;;;;;;;;;;;9.80;98.30;;;;;;5041624;28;19909;-67
2022/05/07 05:03:01;;;;;;;;;;;9.90;98.20;;;;;;5042222;28;19915;-67
2022/05/07 05:05:29;;;;;;;;;;;10.00;98.10;;;;;;5042184;28;19909;-67
2022/05/07 05:07:55;;;;;;;;;;;10.00;98.10;;;;;;5042259;28;19909;-67
2022/05/07 05:10:22;;;;;;;;;;;10.10;97.90;;;;;;5042119;28;20207;-67
2022/05/07 05:12:48;;;;;;;;;;;10.20;97.80;;;;;;5041768;28;19924;-67
2022/05/07 05:15:14;;;;;;;;;;;10.20;97.80;;;;;;5041871;28;19909;-67
2022/05/07 05:17:39;;;;;;;;;;;10.30;97.60;;;;;;5042079;28;19913;-66
2022/05/07 05:20:05;;;;;;;;;;;10.40;97.40;;;;;;5041405;28;20019;-66
2022/05/07 05:22:31;;;;;;;;;;;10.30;97.50;;;;;;5041164;28;19909;-67
2022/05/07 05:24:57;;;;;;;;;;;10.40;97.50;;;;;;5041904;28;19951;-67
2022/05/07 05:27:22;;;;;;;;;;;10.50;97.30;;;;;;5041852;28;19972;-67
2022/05/07 05:29:48;;;;;;;;;;;10.50;97.40;;;;;;5041515;28;20062;-68
2022/05/07 05:32:17;;;;;;;;;;;10.30;97.60;;;;;;5031024;28;19933;-68
2022/05/07 05:34:53;;;;;;;;;;;10.30;97.70;;;;;;5021692;28;19980;-68
2022/05/07 05:37:19;;;;;;;;;;;10.40;97.70;;;;;;5021956;28;19913;-68
2022/05/07 05:39:45;;;;;;;;;;;10.40;97.50;;;;;;5021953;28;19944;-70
2022/05/07 05:42:11;;;;;;;;;;;10.50;97.30;;;;;;5034588;28;19913;-68
2022/05/07 05:44:40;;;;;;;;;;;10.60;97.10;;;;;;5028503;28;19909;-67
2022/05/07 05:47:06;;;;;;;;;;;10.70;97.10;;;;;;5040091;28;19919;-67
2022/05/07 05:49:33;;;;;;;;;;;10.70;97.20;;;;;;5033330;28;19948;-67
2022/05/07 05:52:06;;;;;;;;;;;10.80;97.10;;;;;;5034552;28;19909;-68
2022/05/07 05:54:32;;;;;;;;;;;10.90;97.00;;;;;;5040640;28;19916;-68
2022/05/07 05:56:58;;;;;;;;;;;11.00;97.00;;;;;;5041679;28;19948;-68
2022/05/07 05:59:24;;;;;;;;;;;11.00;96.90;;;;;;5041169;28;19913;-69
2022/05/07 06:01:50;;;;;;;;;;;11.10;96.80;;;;;;5039779;28;20131;-68
2022/05/07 06:04:16;;;;;;;;;;;11.10;96.40;;;;;;5038895;28;19936;-67
2022/05/07 06:06:42;;;;;;;;;;;11.20;96.10;;;;;;5032994;28;19909;-68
2022/05/07 06:09:07;;;;;;;;;;;11.20;96.30;;;;;;5039669;28;19913;-67
2022/05/07 06:11:33;;;;;;;;;;;11.20;96.20;;;;;;5037456;28;20148;-68
2022/05/07 06:13:59;;;;;;;;;;;11.30;96.00;;;;;;5036252;28;20229;-68
2022/05/07 06:16:25;;;;;;;;;;;11.30;95.70;;;;;;5022044;28;19951;-69
2022/05/07 06:18:50;;;;;;;;;;;11.40;95.60;;;;;;5032018;28;20003;-69
2022/05/07 06:21:17;;;;;;;;;;;11.40;95.30;;;;;;5037415;28;19997;-69
2022/05/07 06:23:43;;;;;;;;;;;11.50;95.40;;;;;;5041469;28;19909;-69
2022/05/07 06:28:53;;;;;;;;;;;11.60;95.30;;;;;;5033866;28;19936;-69
2022/05/07 06:31:19;;;;;;;;;;;11.70;95.40;;;;;;5034869;28;20216;-68
2022/05/07 06:33:45;;;;;;;;;;;11.70;95.40;;;;;;5030076;28;19913;-68
2022/05/07 06:36:10;;;;;;;;;;;11.80;95.40;;;;;;5036902;28;20258;-68
2022/05/07 06:38:36;;;;;;;;;;;11.90;95.50;;;;;;5031189;28;20278;-69
2022/05/07 06:41:03;;;;;;;;;;;11.90;95.60;;;;;;5035478;28;20093;-69
2022/05/07 06:43:30;;;;;;;;;;;12.00;95.60;;;;;;5042810;28;20000;-71
2022/05/07 06:45:56;;;;;;;;;;;12.10;95.80;;;;;;5031880;28;19948;-69
2022/05/07 06:48:22;;;;;;;;;;;12.20;95.50;;;;;;5033693;28;19917;-68
2022/05/07 06:50:49;;;;;;;;;;;12.30;95.30;;;;;;5028602;28;19967;-69
2022/05/07 06:53:14;;;;;;;;;;;12.30;95.20;;;;;;5033545;28;19913;-69
2022/05/07 06:55:56;;;;;;;;;;;12.40;94.90;;;;;;5035508;28;19916;-67
2022/05/07 06:58:41;;;;;;;;;;;12.50;94.50;;;;;;5035468;28;19917;-67
2022/05/07 07:01:07;;;;;;;;;;;12.50;94.00;;;;;;5036940;28;20085;-68
2022/05/07 07:03:33;;;;;;;;;;;12.60;93.80;;;;;;5037030;28;20000;-69
2022/05/07 07:05:59;;;;;;;;;;;12.60;93.70;;;;;;5032165;28;19913;-73
2022/05/07 07:08:25;;;;;;;;;;;12.60;93.50;;;;;;5034493;28;20008;-73
2022/05/07 07:10:50;;;;;;;;;;;12.70;93.20;;;;;;5041143;28;20046;-73
2022/05/07 07:13:16;;;;;;;;;;;12.70;92.90;;;;;;5036298;28;19929;-75
2022/05/07 07:15:43;;;;;;;;;;;12.90;92.90;;;;;;5029669;28;20100;-75
2022/05/07 07:18:12;;;;;;;;;;;13.00;92.90;;;;;;5023482;28;19920;-73
2022/05/07 07:20:39;;;;;;;;;;;13.10;92.90;;;;;;5006650;28;19921;-75
2022/05/07 07:23:05;;;;;;;;;;;13.30;92.60;;;;;;5024524;28;19913;-74
2022/05/07 07:25:31;;;;;;;;;;;13.40;92.00;;;;;;5023288;28;19910;-73
2022/05/07 07:27:57;;;;;;;;;;;13.50;91.70;;;;;;5027071;28;19948;-73
2022/05/07 07:30:22;;;;;;;;;;;13.70;91.80;;;;;;5044423;28;19940;-73
2022/05/07 07:32:48;;;;;;;;;;;13.80;91.40;;;;;;5043756;28;19917;-73
2022/05/07 07:35:14;;;;;;;;;;;13.90;91.30;;;;;;5044681;28;19967;-75
2022/05/07 07:37:40;;;;;;;;;;;14.00;90.90;;;;;;5044375;28;20024;-74
2022/05/07 07:40:06;;;;;;;;;;;14.10;90.80;;;;;;5026606;28;19909;-74
2022/05/07 07:42:31;;;;;;;;;;;14.30;90.80;;;;;;5045727;28;20181;-71
2022/05/07 07:47:56;;;;;;;;;;;14.40;90.10;;;;;;5045757;28;19963;-74
2022/05/07 07:50:32;;;;;;;;;;;14.50;89.40;;;;;;5044480;28;20018;-70
2022/05/07 07:52:59;;;;;;;;;;;14.60;89.30;;;;;;5043382;28;19979;-72
2022/05/07 07:55:25;;;;;;;;;;;14.70;88.80;;;;;;5042951;28;20061;-70
2022/05/07 07:57:58;;;;;;;;;;;14.80;88.00;;;;;;5042217;28;19920;-71
2022/05/07 08:00:24;;;;;;;;;;;14.80;87.30;;;;;;5042024;28;19909;-70
2022/05/07 08:02:53;;;;;;;;;;;15.00;87.20;;;;;;5042664;28;20043;-70
2022/05/07 08:05:23;;;;;;;;;;;15.10;86.90;;;;;;5042693;28;19931;-71
2022/05/07 08:13:18;;;;;;;;;;;15.50;85.60;;;;;;5031678;28;19977;-72
2022/05/07 08:15:44;;;;;;;;;;;15.70;83.50;;;;;;5036083;28;19909;-72
2022/05/07 08:18:09;;;;;;;;;;;15.70;83.40;;;;;;5042855;28;19990;-72
2022/05/07 08:20:35;;;;;;;;;;;15.90;83.00;;;;;;5042245;28;19916;-72
2022/05/07 08:23:01;;;;;;;;;;;15.90;82.80;;;;;;5082091;23;20335;-73
2022/05/07 08:25:26;;;;;;;;;;;16.10;82.50;;;;;;5074425;28;19908;-73
2022/05/07 08:27:52;;;;;;;;;;;16.20;81.90;;;;;;5083790;28;20249;-73
2022/05/07 08:30:18;;;;;;;;;;;16.30;80.70;;;;;;5083966;28;19983;-73
2022/05/07 08:32:44;;;;;;;;;;;16.30;79.90;;;;;;5084306;28;19968;-73
2022/05/07 08:35:10;;;;;;;;;;;16.40;79.60;;;;;;5066722;28;19908;-73
2022/05/07 08:37:35;;;;;;;;;;;16.60;79.90;;;;;;5038986;28;19924;-73
2022/05/07 08:40:01;;;;;;;;;;;16.80;79.50;;;;;;5040438;28;19983;-73
2022/05/07 08:42:30;;;;;;;;;;;16.80;80.00;;;;;;5055173;28;19924;-73
2022/05/07 08:44:56;;;;;;;;;;;16.90;79.50;;;;;;5062343;28;19917;-73
2022/05/07 08:47:23;;;;;;;;;;;17.10;79.40;;;;;;5045928;28;19947;-72
2022/05/07 08:49:50;;;;;;;;;;;17.30;76.50;;;;;;5045739;28;19943;-73
2022/05/07 08:52:16;;;;;;;;;;;17.40;76.60;;;;;;5060521;28;19972;-73
2022/05/07 08:54:42;;;;;;;;;;;17.40;76.80;;;;;;5061249;28;19952;-73
2022/05/07 08:57:07;;;;;;;;;;;17.30;76.30;;;;;;5062134;28;19975;-68
2022/05/07 08:59:33;;;;;;;;;;;17.30;76.10;;;;;;5061818;28;19917;-70
2022/05/07 09:01:59;;;;;;;;;;;17.40;75.80;;;;;;5062450;28;19915;-70
2022/05/07 09:04:24;;;;;;;;;;;17.60;77.10;;;;;;5063003;28;20208;-70
2022/05/07 09:07:03;;;;;;;;;;;17.70;74.70;;;;;;5062951;28;19985;-71
2022/05/07 09:09:31;;;;;;;;;;;17.90;72.50;;;;;;5063206;28;20228;-70
2022/05/07 09:11:57;;;;;;;;;;;18.00;72.10;;;;;;5062159;28;19909;-70
2022/05/07 09:14:29;;;;;;;;;;;18.10;69.50;;;;;;5061827;28;19908;-71
2022/05/07 09:16:59;;;;;;;;;;;18.40;69.60;;;;;;5061132;28;19948;-74
2022/05/07 09:19:28;;;;;;;;;;;18.50;69.10;;;;;;5060048;28;19917;-75
2022/05/07 09:22:07;;;;;;;;;;;18.90;64.70;;;;;;5057311;28;19913;-74
2022/05/07 09:24:33;;;;;;;;;;;18.90;65.30;;;;;;5043911;28;20207;-75
2022/05/07 09:26:59;;;;;;;;;;;19.10;65.40;;;;;;5057625;28;19947;-75
2022/05/07 09:29:28;;;;;;;;;;;19.30;64.40;;;;;;5062664;28;20172;-75
2022/05/07 09:31:53;;;;;;;;;;;19.30;63.60;;;;;;5052487;28;19913;-74
2022/05/07 09:37:17;;;;;;;;;;;19.50;63.90;;;;;;5044617;28;19951;-75
2022/05/07 09:39:50;;;;;;;;;;;19.50;62.40;;;;;;5053722;28;19917;-74
2022/05/07 09:42:20;;;;;;;;;;;19.70;61.10;;;;;;5037780;28;19912;-74
2022/05/07 09:44:46;;;;;;;;;;;19.80;61.60;;;;;;5030900;28;20157;-75
2022/05/07 09:47:12;;;;;;;;;;;19.80;62.10;;;;;;5058264;28;19909;-75
2022/05/07 09:50:20;;;;;;;;;;;19.80;60.40;;;;;;5061996;28;19915;-75
2022/05/07 09:52:27;;;;;;;;;;;19.80;60.00;;;;;;5060700;28;19917;-69
2022/05/07 09:57:38;;;;;;;;;;;20.00;62.40;;;;;;5048026;28;19951;-77
2022/05/07 10:00:08;;;;;;;;;;;20.10;58.00;;;;;;5062325;28;19931;-77
2022/05/07 10:03:05;;;;;;;;;;;20.30;60.00;;;;;;5045091;28;19908;-78
2022/05/07 10:05:49;;;;;;;;;;;20.20;58.00;;;;;;5064572;28;19909;-77
2022/05/07 10:08:39;;;;;;;;;;;20.30;56.90;;;;;;5066595;28;19955;-77
2022/05/07 10:11:04;;;;;;;;;;;20.20;56.50;;;;;;5071073;28;19972;-77
2022/05/07 10:13:30;;;;;;;;;;;20.50;67.20;;;;;;5038840;28;19915;-76
2022/05/07 10:16:00;;;;;;;;;;;20.50;56.50;;;;;;5061977;28;19913;-76
2022/05/07 10:18:41;;;;;;;;;;;20.50;59.30;;;;;;5030625;28;19917;-78
2022/05/07 10:21:13;;;;;;;;;;;20.60;59.90;;;;;;5045188;28;19972;-77
2022/05/07 10:23:55;;;;;;;;;;;20.70;58.30;;;;;;5037607;28;19942;-77
2022/05/07 10:26:43;;;;;;;;;;;20.80;58.70;;;;;;5056116;28;19913;-77
2022/05/07 10:29:21;;;;;;;;;;;20.80;55.80;;;;;;5068305;28;19943;-77
2022/05/07 10:31:47;;;;;;;;;;;21.00;58.20;;;;;;5064474;28;20111;-77
2022/05/07 10:34:26;;;;;;;;;;;21.20;56.40;;;;;;5065413;28;19979;-77
2022/05/07 10:37:07;;;;;;;;;;;21.30;56.00;;;;;;5048233;28;19976;-77
2022/05/07 10:39:33;;;;;;;;;;;21.30;55.10;;;;;;5065933;28;19908;-77
2022/05/07 10:42:02;;;;;;;;;;;21.30;54.10;;;;;;5047385;28;19913;-77
2022/05/07 10:44:32;;;;;;;;;;;21.30;56.30;;;;;;5047164;28;19912;-70
2022/05/07 10:47:14;;;;;;;;;;;21.20;55.70;;;;;;5065471;28;20147;-71
2022/05/07 10:50:06;;;;;;;;;;;21.00;55.30;;;;;;5065196;28;19908;-71
2022/05/07 10:52:33;;;;;;;;;;;21.30;56.80;;;;;;5064935;28;19909;-71
2022/05/07 10:55:08;;;;;;;;;;;21.60;55.30;;;;;;5064699;28;20176;-71
2022/05/07 10:57:38;;;;;;;;;;;21.80;54.10;;;;;;5061697;28;20208;-72
2022/05/07 11:00:07;;;;;;;;;;;22.20;54.00;;;;;;5055781;28;19916;-73
2022/05/07 11:02:33;;;;;;;;;;;22.40;54.00;;;;;;5038695;28;19917;-75
2022/05/07 11:04:59;;;;;;;;;;;22.50;52.50;;;;;;5047976;28;19965;-72
